createdAt,value
2023-03-08T00:00:41.281Z,1.40
2023-03-08T00:03:44.317Z,1.40
2023-03-08T00:06:47.291Z,1.40
2023-03-08T00:09:51.759Z,1.40
2023-03-08T00:12:54.709Z,1.40
2023-03-08T00:16:00.805Z,1.40
2023-03-08T00:19:03.829Z,1.30
2023-03-08T00:22:06.893Z,1.30
2023-03-08T00:25:12.264Z,1.30
2023-03-08T00:28:15.217Z,1.30
2023-03-08T00:31:18.226Z,1.30
2023-03-08T00:34:21.167Z,1.20
2023-03-08T00:37:24.153Z,1.30
2023-03-08T00:40:28.478Z,1.20
2023-03-08T00:43:32.066Z,1.20
2023-03-08T00:46:35.096Z,1.20
2023-03-08T00:49:38.036Z,1.20
2023-03-08T00:52:40.971Z,1.20
2023-03-08T00:55:51.264Z,1.10
2023-03-08T00:58:54.195Z,1.10
2023-03-08T01:01:57.139Z,1.10
2023-03-08T01:05:00.083Z,1.00
2023-03-08T01:08:05.026Z,1.00
2023-03-08T01:11:16.558Z,1.00
2023-03-08T01:14:19.515Z,0.90
2023-03-08T01:17:22.496Z,0.90
2023-03-08T01:20:25.452Z,0.90
2023-03-08T01:23:28.438Z,0.80
2023-03-08T01:26:32.727Z,0.80
2023-03-08T01:29:35.644Z,0.90
2023-03-08T01:32:38.670Z,0.80
2023-03-08T01:35:41.623Z,0.80
2023-03-08T01:38:44.925Z,0.80
2023-03-08T01:41:49.386Z,0.80
2023-03-08T01:44:54.754Z,0.80
2023-03-08T01:47:57.727Z,0.80
2023-03-08T01:51:03.902Z,0.80
2023-03-08T01:54:11.404Z,0.70
2023-03-08T01:57:20.834Z,0.70
2023-03-08T02:00:26.786Z,0.70
2023-03-08T02:03:29.772Z,0.70
2023-03-08T02:06:32.723Z,0.70
2023-03-08T02:09:35.700Z,0.80
2023-03-08T02:12:40.656Z,0.70
2023-03-08T02:15:43.724Z,0.70
2023-03-08T02:18:56.002Z,0.70
2023-03-08T02:21:58.974Z,0.70
2023-03-08T02:25:03.223Z,0.70
2023-03-08T02:28:07.521Z,0.70
2023-03-08T02:31:11.836Z,0.70
2023-03-08T02:34:14.789Z,0.70
2023-03-08T02:37:17.744Z,0.70
2023-03-08T02:40:22.204Z,0.70
2023-03-08T02:43:25.311Z,0.80
2023-03-08T02:46:28.353Z,0.90
2023-03-08T02:49:31.310Z,1.10
2023-03-08T02:52:34.263Z,1.10
2023-03-08T02:55:39.893Z,1.20
2023-03-08T02:58:42.902Z,1.30
2023-03-08T03:01:45.904Z,1.40
2023-03-08T03:04:49.166Z,1.40
2023-03-08T03:07:52.372Z,1.50
2023-03-08T03:10:56.687Z,1.40
2023-03-08T03:14:01.834Z,1.40
2023-03-08T03:17:04.817Z,1.40
2023-03-08T03:20:10.178Z,1.40
2023-03-08T03:23:13.156Z,1.40
2023-03-08T03:26:19.567Z,1.40
2023-03-08T03:29:22.658Z,1.40
2023-03-08T03:32:25.783Z,1.40
2023-03-08T03:35:28.752Z,1.40
2023-03-08T03:38:34.224Z,1.40
2023-03-08T03:41:38.674Z,1.40
2023-03-08T03:44:41.824Z,1.50
2023-03-08T03:47:44.797Z,1.50
2023-03-08T03:50:55.746Z,1.50
2023-03-08T03:53:59.507Z,1.50
2023-03-08T03:57:03.928Z,1.60
2023-03-08T04:00:08.445Z,1.60
2023-03-08T04:03:11.487Z,1.60
2023-03-08T04:06:16.595Z,1.60
2023-03-08T04:09:20.581Z,1.60
2023-03-08T04:12:24.837Z,1.60
2023-03-08T04:15:28.803Z,1.50
2023-03-08T04:18:31.743Z,1.60
2023-03-08T04:21:35.455Z,1.60
2023-03-08T04:24:38.411Z,1.80
2023-03-08T04:27:42.708Z,1.80
2023-03-08T04:30:46.622Z,1.80
2023-03-08T04:33:49.852Z,1.80
2023-03-08T04:36:52.761Z,1.90
2023-03-08T04:39:55.676Z,1.90
2023-03-08T04:43:00.119Z,1.90
2023-03-08T04:46:04.495Z,2.00
2023-03-08T04:49:07.438Z,2.00
2023-03-08T04:52:10.340Z,1.90
2023-03-08T04:55:13.289Z,2.00
2023-03-08T04:58:18.316Z,2.00
2023-03-08T05:01:23.279Z,2.00
2023-03-08T05:04:26.333Z,2.00
2023-03-08T05:07:29.310Z,2.00
2023-03-08T05:10:32.388Z,2.00
2023-03-08T05:13:38.927Z,2.00
2023-03-08T05:16:41.925Z,2.10
2023-03-08T05:19:44.920Z,2.10
2023-03-08T05:22:58.327Z,2.00
2023-03-08T05:26:04.040Z,2.10
2023-03-08T05:29:08.315Z,2.00
2023-03-08T05:32:12.475Z,2.10
2023-03-08T05:35:15.643Z,2.10
2023-03-08T05:38:18.550Z,2.10
2023-03-08T05:41:21.780Z,2.00
2023-03-08T05:44:26.071Z,2.10
2023-03-08T05:47:30.244Z,2.10
2023-03-08T05:50:33.241Z,2.10
2023-03-08T05:53:36.706Z,2.20
2023-03-08T05:56:39.625Z,2.10
2023-03-08T05:59:43.877Z,2.10
2023-03-08T06:02:46.814Z,2.20
2023-03-08T06:05:49.746Z,2.00
2023-03-08T06:08:53.947Z,2.00
2023-03-08T06:11:56.883Z,2.10
2023-03-08T06:15:01.143Z,2.00
2023-03-08T06:18:04.033Z,2.10
2023-03-08T06:21:08.445Z,2.10
2023-03-08T06:24:11.358Z,2.10
2023-03-08T06:27:14.278Z,2.00
2023-03-08T06:30:19.283Z,2.00
2023-03-08T06:33:24.414Z,2.10
2023-03-08T06:36:27.420Z,2.30
2023-03-08T06:39:31.651Z,2.30
2023-03-08T06:42:41.555Z,2.20
2023-03-08T06:45:46.357Z,2.20
2023-03-08T06:48:50.799Z,2.10
2023-03-08T06:51:53.827Z,2.10
2023-03-08T06:54:56.752Z,2.10
2023-03-08T06:57:59.653Z,2.20
2023-03-08T07:01:04.400Z,2.20
2023-03-08T07:04:08.099Z,2.20
2023-03-08T07:07:11.138Z,2.30
2023-03-08T07:10:16.628Z,2.30
2023-03-08T07:13:19.922Z,2.40
2023-03-08T07:16:24.200Z,2.40
2023-03-08T07:19:27.485Z,2.40
2023-03-08T07:22:31.252Z,2.40
2023-03-08T07:25:35.228Z,2.50
2023-03-08T07:28:38.167Z,2.50
2023-03-08T07:31:42.981Z,2.50
2023-03-08T07:34:46.220Z,2.50
2023-03-08T07:37:49.539Z,2.50
2023-03-08T07:40:55.969Z,2.60
2023-03-08T07:43:59.027Z,2.60
2023-03-08T07:47:03.278Z,2.60
2023-03-08T07:50:06.553Z,2.80
2023-03-08T07:53:09.482Z,2.90
2023-03-08T07:56:12.629Z,2.90
2023-03-08T07:59:15.758Z,3.00
2023-03-08T08:02:20.143Z,3.00
2023-03-08T08:05:23.375Z,3.00
2023-03-08T08:08:26.361Z,3.10
2023-03-08T08:11:29.393Z,3.10
2023-03-08T08:14:32.678Z,3.10
2023-03-08T08:17:36.930Z,3.30
2023-03-08T08:20:39.894Z,3.20
2023-03-08T08:23:43.563Z,3.30
2023-03-08T08:26:46.526Z,3.40
2023-03-08T08:29:50.803Z,3.40
2023-03-08T08:32:55.104Z,3.40
2023-03-08T08:35:59.191Z,3.40
2023-03-08T08:39:02.171Z,3.30
2023-03-08T08:42:05.352Z,3.40
2023-03-08T08:45:09.333Z,3.40
2023-03-08T08:48:14.138Z,3.60
2023-03-08T08:51:17.317Z,3.80
2023-03-08T08:54:20.405Z,3.90
2023-03-08T08:57:23.415Z,3.90
2023-03-08T09:00:26.506Z,3.80
2023-03-08T09:03:30.779Z,3.80
2023-03-08T09:06:33.770Z,3.80
2023-03-08T09:09:36.725Z,3.70
2023-03-08T09:12:39.904Z,3.80
2023-03-08T09:15:42.977Z,3.50
2023-03-08T09:18:47.607Z,3.40
2023-03-08T09:21:50.605Z,3.40
2023-03-08T09:24:53.549Z,3.40
2023-03-08T09:27:56.505Z,3.40
2023-03-08T09:30:59.482Z,3.50
2023-03-08T09:34:08.767Z,3.40
2023-03-08T09:37:12.334Z,3.50
2023-03-08T09:40:21.087Z,3.50
2023-03-08T09:43:37.259Z,3.60
2023-03-08T09:46:47.167Z,3.60
2023-03-08T09:49:55.418Z,3.50
2023-03-08T09:53:05.407Z,3.60
2023-03-08T09:56:17.717Z,3.70
2023-03-08T09:59:25.294Z,3.80
2023-03-08T10:02:37.204Z,3.70
2023-03-08T10:05:44.497Z,3.90
2023-03-08T10:08:56.061Z,4.00
2023-03-08T10:12:08.291Z,4.10
2023-03-08T10:15:18.662Z,4.10
2023-03-08T10:18:30.832Z,4.20
2023-03-08T10:21:39.516Z,4.20
2023-03-08T10:24:48.787Z,4.20
2023-03-08T10:27:54.264Z,4.10
2023-03-08T10:30:59.964Z,4.20
2023-03-08T10:34:08.091Z,4.30
2023-03-08T10:37:12.542Z,4.30
2023-03-08T10:40:20.423Z,4.30
2023-03-08T10:43:28.090Z,4.30
2023-03-08T10:46:32.916Z,4.50
2023-03-08T10:49:35.968Z,4.50
2023-03-08T10:52:41.121Z,4.50
2023-03-08T10:55:48.264Z,4.50
2023-03-08T10:58:55.039Z,4.60
2023-03-08T11:02:00.962Z,4.60
2023-03-08T11:05:04.118Z,4.60
2023-03-08T11:08:19.569Z,4.70
2023-03-08T11:11:23.011Z,4.80
2023-03-08T11:14:26.962Z,4.90
2023-03-08T11:17:35.465Z,4.90
2023-03-08T11:20:45.335Z,4.90
2023-03-08T11:23:59.640Z,5.00
2023-03-08T11:27:18.254Z,5.30
2023-03-08T11:30:33.058Z,5.50
2023-03-08T11:34:01.093Z,5.70
2023-03-08T11:37:10.276Z,5.60
2023-03-08T11:40:24.850Z,5.90
2023-03-08T11:43:54.253Z,6.10
2023-03-08T11:47:24.773Z,5.70
2023-03-08T11:50:31.622Z,6.00
2023-03-08T11:53:45.490Z,6.00
2023-03-08T11:56:55.314Z,6.10
2023-03-08T12:00:09.435Z,5.90
2023-03-08T12:03:16.669Z,6.00
2023-03-08T12:06:29.085Z,6.00
2023-03-08T12:09:37.302Z,6.00
2023-03-08T12:12:48.409Z,6.30
2023-03-08T12:15:56.505Z,6.50
2023-03-08T12:19:06.631Z,6.90
2023-03-08T12:22:31.019Z,7.00
2023-03-08T12:25:39.843Z,7.00
2023-03-08T12:28:48.169Z,6.90
2023-03-08T12:31:52.290Z,7.30
2023-03-08T12:35:04.428Z,7.40
2023-03-08T12:38:32.325Z,7.00
2023-03-08T12:41:35.680Z,7.10
2023-03-08T12:44:40.822Z,7.10
2023-03-08T12:47:43.863Z,7.20
2023-03-08T12:51:00.145Z,7.30
2023-03-08T12:54:05.436Z,7.30
2023-03-08T12:57:20.387Z,6.40
2023-03-08T13:00:30.918Z,6.50
2023-03-08T13:03:40.026Z,6.90
2023-03-08T13:07:10.715Z,7.40
2023-03-08T13:10:21.778Z,7.20
2023-03-08T13:13:39.366Z,7.10
2023-03-08T13:16:43.997Z,7.00
2023-03-08T13:19:49.653Z,7.40
2023-03-08T13:23:02.856Z,7.50
2023-03-08T13:26:47.605Z,7.40
2023-03-08T13:29:54.785Z,7.10
2023-03-08T13:33:00.125Z,7.10
2023-03-08T13:36:04.917Z,6.90
2023-03-08T13:39:16.780Z,6.70
2023-03-08T13:42:24.616Z,6.80
2023-03-08T13:45:27.941Z,6.80
2023-03-08T13:48:34.935Z,6.90
2023-03-08T13:51:38.002Z,6.80
2023-03-08T13:54:47.129Z,6.40
2023-03-08T13:57:52.900Z,6.40
2023-03-08T14:01:02.329Z,6.60
2023-03-08T14:04:17.415Z,6.60
2023-03-08T14:07:23.855Z,6.60
2023-03-08T14:10:37.014Z,6.60
2023-03-08T14:13:42.565Z,6.50
2023-03-08T14:16:46.038Z,6.40
2023-03-08T14:19:55.391Z,6.40
2023-03-08T14:22:58.611Z,6.30
2023-03-08T14:26:01.636Z,6.10
2023-03-08T14:29:13.439Z,6.20
2023-03-08T14:32:30.839Z,6.30
2023-03-08T14:35:38.081Z,6.20
2023-03-08T14:38:41.165Z,6.20
2023-03-08T14:41:44.145Z,6.20
2023-03-08T14:44:52.932Z,5.80
2023-03-08T14:47:58.140Z,5.80
2023-03-08T14:51:03.483Z,6.00
2023-03-08T14:54:20.533Z,6.10
2023-03-08T14:57:26.337Z,6.10
2023-03-08T15:00:29.952Z,5.90
2023-03-08T15:03:33.691Z,5.90
2023-03-08T15:06:40.701Z,6.00
2023-03-08T15:09:43.750Z,6.20
2023-03-08T15:12:46.672Z,6.00
2023-03-08T15:15:50.737Z,5.80
2023-03-08T15:18:53.787Z,5.90
2023-03-08T15:21:58.561Z,6.00
2023-03-08T15:25:01.536Z,6.00
2023-03-08T15:28:05.431Z,6.00
2023-03-08T15:31:09.787Z,6.00
2023-03-08T15:34:12.792Z,6.00
2023-03-08T15:37:17.112Z,6.00
2023-03-08T15:40:21.696Z,6.10
2023-03-08T15:43:24.629Z,6.00
2023-03-08T15:46:28.305Z,5.90
2023-03-08T15:49:31.264Z,5.90
2023-03-08T15:52:35.696Z,5.80
2023-03-08T15:55:40.051Z,5.80
2023-03-08T15:58:43.197Z,5.80
2023-03-08T16:01:46.265Z,5.70
2023-03-08T16:04:49.348Z,5.70
2023-03-08T16:07:55.921Z,5.60
2023-03-08T16:11:03.684Z,5.60
2023-03-08T16:14:06.705Z,5.20
2023-03-08T16:17:10.022Z,5.10
2023-03-08T16:20:14.906Z,5.20
2023-03-08T16:23:19.426Z,5.10
2023-03-08T16:26:22.407Z,5.20
2023-03-08T16:29:25.372Z,5.20
2023-03-08T16:32:28.889Z,5.20
2023-03-08T16:35:31.859Z,5.20
2023-03-08T16:38:36.380Z,5.20
2023-03-08T16:41:40.715Z,5.00
2023-03-08T16:44:49.881Z,5.00
2023-03-08T16:47:52.959Z,4.90
2023-03-08T16:50:57.822Z,5.00
2023-03-08T16:54:02.113Z,4.90
2023-03-08T16:57:18.133Z,4.90
2023-03-08T17:00:22.954Z,4.70
2023-03-08T17:03:26.008Z,4.70
2023-03-08T17:06:30.852Z,4.60
2023-03-08T17:09:35.268Z,4.60
2023-03-08T17:12:38.235Z,4.50
2023-03-08T17:15:42.830Z,4.40
2023-03-08T17:18:45.877Z,4.40
2023-03-08T17:21:50.726Z,4.30
2023-03-08T17:24:54.999Z,4.40
2023-03-08T17:27:58.040Z,4.30
2023-03-08T17:31:01.474Z,4.30
2023-03-08T17:34:04.988Z,4.30
2023-03-08T17:37:12.009Z,4.30
2023-03-08T17:40:17.672Z,4.20
2023-03-08T17:43:21.051Z,4.30
2023-03-08T17:46:26.154Z,4.30
2023-03-08T17:49:29.169Z,4.30
2023-03-08T17:52:32.307Z,4.20
2023-03-08T17:55:36.585Z,4.20
2023-03-08T17:58:39.617Z,4.20
2023-03-08T18:01:42.894Z,4.20
2023-03-08T18:04:46.461Z,4.20
2023-03-08T18:07:49.450Z,4.10
2023-03-08T18:10:53.726Z,4.00
2023-03-08T18:13:57.044Z,4.00
2023-03-08T18:17:00.631Z,4.10
2023-03-08T18:20:05.371Z,4.00
2023-03-08T18:23:08.361Z,4.00
2023-03-08T18:26:13.818Z,3.90
2023-03-08T18:29:18.214Z,3.90
2023-03-08T18:32:21.274Z,3.90
2023-03-08T18:35:24.256Z,3.90
2023-03-08T18:38:27.245Z,3.80
2023-03-08T18:41:31.552Z,3.80
2023-03-08T18:44:34.583Z,3.70
2023-03-08T18:47:38.181Z,3.70
2023-03-08T18:50:44.338Z,3.70
2023-03-08T18:53:47.407Z,3.70
2023-03-08T18:56:53.739Z,3.70
2023-03-08T18:59:56.755Z,3.60
2023-03-08T19:02:59.730Z,3.50
2023-03-08T19:06:04.729Z,3.40
2023-03-08T19:09:12.467Z,3.40
2023-03-08T19:12:16.773Z,3.50
2023-03-08T19:15:19.758Z,3.50
2023-03-08T19:18:24.793Z,3.40
2023-03-08T19:21:29.630Z,3.30
2023-03-08T19:24:33.362Z,3.30
2023-03-08T19:27:38.787Z,3.30
2023-03-08T19:30:41.745Z,3.30
2023-03-08T19:33:49.323Z,3.30
2023-03-08T19:36:52.757Z,3.20
2023-03-08T19:39:55.845Z,3.20
2023-03-08T19:43:00.686Z,3.20
2023-03-08T19:46:04.077Z,3.20
2023-03-08T19:49:08.734Z,3.20
2023-03-08T19:52:14.205Z,3.20
2023-03-08T19:55:17.394Z,3.20
2023-03-08T19:58:23.281Z,3.20
2023-03-08T20:01:27.631Z,3.20
2023-03-08T20:04:30.754Z,3.20
2023-03-08T20:07:34.356Z,3.10
2023-03-08T20:10:37.545Z,3.20
2023-03-08T20:13:41.950Z,3.20
2023-03-08T20:16:44.957Z,3.20
2023-03-08T20:19:47.927Z,3.10
2023-03-08T20:22:51.067Z,3.20
2023-03-08T20:25:54.144Z,3.20
2023-03-08T20:28:59.198Z,3.20
2023-03-08T20:32:02.161Z,3.20
2023-03-08T20:35:05.730Z,3.10
2023-03-08T20:38:08.773Z,3.10
2023-03-08T20:41:15.782Z,3.10
2023-03-08T20:44:20.270Z,3.10
2023-03-08T20:47:23.320Z,3.00
2023-03-08T20:50:27.902Z,3.10
2023-03-08T20:53:32.329Z,3.10
2023-03-08T20:56:35.343Z,3.10
2023-03-08T20:59:39.686Z,2.90
2023-03-08T21:02:43.102Z,2.90
2023-03-08T21:05:46.755Z,2.90
2023-03-08T21:08:51.375Z,2.90
2023-03-08T21:11:54.367Z,2.80
2023-03-08T21:14:58.969Z,2.90
2023-03-08T21:18:02.134Z,2.90
2023-03-08T21:21:05.584Z,2.90
2023-03-08T21:24:12.487Z,2.80
2023-03-08T21:27:16.186Z,2.80
2023-03-08T21:30:21.345Z,2.80
2023-03-08T21:33:24.348Z,2.80
2023-03-08T21:36:27.405Z,2.80
2023-03-08T21:39:30.423Z,2.80
2023-03-08T21:42:33.376Z,2.70
2023-03-08T21:45:42.031Z,2.70
2023-03-08T21:48:45.080Z,2.60
2023-03-08T21:51:48.523Z,2.70
2023-03-08T21:54:52.090Z,2.70
2023-03-08T21:57:55.075Z,2.70
2023-03-08T22:00:59.498Z,2.80
2023-03-08T22:04:03.301Z,2.80
2023-03-08T22:07:06.270Z,2.80
2023-03-08T22:10:12.702Z,2.80
2023-03-08T22:13:15.685Z,2.70
2023-03-08T22:16:20.874Z,2.70
2023-03-08T22:19:23.882Z,2.70
2023-03-08T22:22:26.843Z,2.60
2023-03-08T22:25:29.865Z,2.70
2023-03-08T22:28:32.764Z,2.60
2023-03-08T22:31:37.159Z,2.70
2023-03-08T22:34:40.190Z,2.70
2023-03-08T22:37:43.823Z,2.60
2023-03-08T22:40:46.812Z,2.60
2023-03-08T22:43:50.436Z,2.60
2023-03-08T22:46:54.686Z,2.70
2023-03-08T22:49:57.660Z,2.70
2023-03-08T22:53:00.621Z,2.70
2023-03-08T22:56:03.585Z,2.60
2023-03-08T22:59:06.640Z,2.60
2023-03-08T23:02:10.905Z,2.60
2023-03-08T23:05:15.927Z,2.60
2023-03-08T23:08:18.831Z,2.60
2023-03-08T23:11:21.855Z,2.60
2023-03-08T23:14:24.811Z,2.60
2023-03-08T23:17:29.331Z,2.60
2023-03-08T23:20:33.309Z,2.50
2023-03-08T23:23:36.723Z,2.40
2023-03-08T23:26:40.013Z,2.40
2023-03-08T23:29:43.263Z,2.40
2023-03-08T23:32:47.756Z,2.30
2023-03-08T23:35:50.886Z,2.30
2023-03-08T23:38:54.211Z,2.20
2023-03-08T23:41:57.294Z,2.30
2023-03-08T23:45:00.303Z,2.10
2023-03-08T23:48:04.654Z,2.20
2023-03-08T23:51:09.624Z,2.10
2023-03-08T23:54:13.613Z,2.20
2023-03-08T23:57:16.551Z,2.20
